Airfield :
LOGIN :

Register | Disclaimer

   EN    FR    IT 

 










Legend :    VFR   Marginal VFR   IFR   Intensive IFR   Very Intensive IFR
Visi :
Ceiling :
>= 8 km
>= 3000ft
5 to 8 km
1000 to 3000 ft
1500m to 5 km
500 to 1000 ft
800 to 1500m
200 to 500 ft
< 800m
< 200 ft
Symbols :   Thunderstorms  Fog  Heavy snow  Heavy precipitations  Wind > 20 kt
SIGMETs :     Misc.  Thunderstorms  Icing  Turbulence  Mountain Waves  Volcanic Ashes






- Airport Elevation : 778 ft
- IATA code : BRQ


LKTB - Brno-Turany

CURRENT METAR :
  • 251630Z 11007KT 5000 BR OVC011 01/00 Q1025 NOSIG

EXPIRED METARs :
  • 251600Z 11006KT 4000 -DZ BR BKN008 OVC013 01/00 Q1025 NOSIG
  • 251530Z 11005KT 4000 -DZ BR BKN006 OVC011 01/00 Q1025 NOSIG
  • 251500Z 10005KT 4000 BR BKN007 OVC012 01/00 Q1025 NOSIG
  • 251430Z 10006KT 4200 BR BKN007 OVC012 01/00 Q1024 NOSIG
  • 251400Z 10007KT 4500 BR OVC006 01/00 Q1024 NOSIG

TAF TAF LKTB
Valid from the 25 at 12:00 until the 26 at 18:00 UTC


251100Z 2512/2618 13006KT 2000 -DZ BR OVC007
TEMPO 2512/2600 7000 BKN006
TEMPO 2600/2608 OVC002
PROB30
TEMPO 2600/2608 1200 BR
TEMPO 2608/2612 7000 BKN006



MET'MAP, your aeronautical weather chart ! - Copyright ORBIFLY December 2007 - Disclaimer

ORBIFLY MET'MAP TEAM :

Programming & Development : Alexandra Zaïnal
Concept & original design : Baudouin d'Aumeries
Assistance for programming : Marc-Olivier Méhu
Technical & hardware support : Manuel Goepfert

Contact : metmap@orbifly.com




SOURCES & CREDITS :

   NOAA